Weather reports worldwide

Advertisment
Coventry/Coundon, United Kingdom (99070): temperature & dewpoint: 17.01.2019 23:00:00 - 23.01.2019 23:00:00 (GMT)Coventry/Coundon, United Kingdom (99070): temperature -20cm & temperature -100cm: 17.01.2019 23:00:00 - 23.01.2019 23:00:00 (GMT)Coventry/Coundon, United Kingdom (99070): wind speed: 17.01.2019 23:00:00 - 23.01.2019 23:00:00 (GMT)Coventry/Coundon, United Kingdom (99070): wind direction: 17.01.2019 23:00:00 - 23.01.2019 23:00:00 (GMT)Coventry/Coundon, United Kingdom (99070): precipitation: 17.01.2019 23:00:00 - 23.01.2019 23:00:00 (GMT)
Date & Time tt [°C] td [°C] tt -20cm [°C] tt -100cm [°C] ff [km/h] ff [kn] dd rr [mm]
23.01.2019 23:00:00 -1,4 -1,7 - - 4 2 SSW 0,0
23.01.2019 22:00:00 -2,0 -2,6 - - 2 1 SSW 0,0
23.01.2019 21:00:00 -1,6 -2,4 - - 4 2 W 0,0
23.01.2019 20:00:00 -1,3 -2,2 - - 4 2 W 0,0
23.01.2019 19:00:00 -0,8 -2,3 - - 5 3 NW 0,0
23.01.2019 18:00:00 -0,8 -2,2 - - 5 3 WNW 0,0
23.01.2019 17:00:00 0,3 -1,7 - - 4 2 WNW 0,0
23.01.2019 16:00:00 1,7 -1,4 - - 5 3 WNW 0,0
23.01.2019 15:00:00 2,4 -1,5 - - 8 4 NW 0,0
23.01.2019 14:00:00 2,6 -1,0 - - 8 4 NNW 0,0
23.01.2019 13:00:00 1,9 -1,0 - - 9 5 NNW 0,4
23.01.2019 12:00:00 1,2 -1,1 - - 11 6 NW 0,8
23.01.2019 11:00:00 0,2 -1,0 - - 9 5 NW 0,0
23.01.2019 10:00:00 -0,5 -1,4 - - 9 5 NW 0,0
23.01.2019 09:00:00 -1,3 -2,1 5,4 7,7 5 3 WNW 0,0
23.01.2019 08:00:00 -1,4 -2,4 - - 8 4 NNW 0,0
23.01.2019 07:00:00 -0,7 -1,4 - - 11 6 NNW 0,0
23.01.2019 06:00:00 -0,7 -1,3 - - 9 5 NNW 0,0
23.01.2019 05:00:00 -0,2 -0,6 - - 11 6 NW 0,0
23.01.2019 04:00:00 0,2 0,0 - - 13 7 NW 0,0
23.01.2019 03:00:00 0,1 -0,1 - - 9 5 NNW 0,0
23.01.2019 02:00:00 -0,1 -0,3 - - 5 3 WNW 0,0
23.01.2019 01:00:00 -0,3 -0,6 - - 5 3 WNW 0,0
23.01.2019 00:00:00 -1,0 -1,3 - - 4 2 WNW 0,0
22.01.2019 23:00:00 -0,9 -1,3 - - 4 2 WNW 0,0
22.01.2019 22:00:00 -0,3 -0,8 - - 4 2 WNW 0,0
22.01.2019 21:00:00 0,1 -0,4 - - 8 4 WNW 0,0
22.01.2019 20:00:00 0,5 0,1 - - 8 4 WNW 0,0
22.01.2019 19:00:00 0,5 0,2 - - 4 2 W 0,0
22.01.2019 18:00:00 0,3 -0,3 - - 4 2 WNW 0,4
22.01.2019 17:00:00 0,8 -0,1 - - 11 6 W 0,4
22.01.2019 16:00:00 2,4 1,4 - - 5 3 SW 0,2
22.01.2019 15:00:00 2,0 1,1 - - 5 3 SW 0,8
22.01.2019 14:00:00 3,6 0,8 - - 8 4 WSW 0,0
22.01.2019 13:00:00 4,3 1,1 - - 11 6 SW 0,0
22.01.2019 12:00:00 3,8 1,0 - - 8 4 SW 0,0
22.01.2019 11:00:00 2,5 0,7 - - 11 6 WSW 0,0
22.01.2019 10:00:00 1,8 0,3 - - 13 7 WSW 0,0
22.01.2019 09:00:00 1,0 0,1 5,7 7,7 8 4 WSW 0,0
22.01.2019 08:00:00 0,6 -0,3 - - 8 4 WSW 0,0
22.01.2019 07:00:00 0,4 -0,5 - - 8 4 WSW 0,0
22.01.2019 06:00:00 0,6 -0,1 - - 11 6 WSW 0,0
22.01.2019 05:00:00 0,8 0,1 - - 8 4 WSW 0,0
22.01.2019 04:00:00 1,4 0,6 - - 11 6 WSW 0,0
22.01.2019 03:00:00 2,4 1,3 - - 11 6 W 0,0
22.01.2019 02:00:00 3,3 2,1 - - 9 5 W 0,2
22.01.2019 01:00:00 4,6 3,6 - - 16 9 WSW 1,4
22.01.2019 00:00:00 4,5 3,8 - - 16 9 S 1,6
21.01.2019 23:00:00 4,3 3,2 - - 18 10 S 0,4
21.01.2019 22:00:00 4,1 2,4 - - 13 7 S 0,0
21.01.2019 21:00:00 3,9 1,8 - - 13 7 S 0,0
21.01.2019 20:00:00 3,8 1,5 - - 15 8 S 0,0
21.01.2019 19:00:00 3,6 1,3 - - 13 7 S 0,0
21.01.2019 18:00:00 3,3 0,6 - - 11 6 S 0,0
21.01.2019 17:00:00 3,8 0,2 - - 11 6 S 0,0
21.01.2019 16:00:00 4,6 0,5 - - 13 7 SSW 0,0
21.01.2019 15:00:00 4,9 2,0 - - 8 4 SSW 0,0
21.01.2019 14:00:00 4,6 2,0 - - 9 5 S 0,0
21.01.2019 13:00:00 4,4 2,2 - - 9 5 S 0,0
21.01.2019 12:00:00 4,1 3,0 - - 8 4 SSW 0,0
21.01.2019 11:00:00 3,2 2,8 - - 5 3 S 0,0
21.01.2019 10:00:00 2,5 2,0 - - 5 3 S 0,0
21.01.2019 09:00:00 2,3 1,8 5,7 7,7 2 1 SSW 0,0
21.01.2019 08:00:00 2,3 1,8 - - 2 1 SSW 0,0
21.01.2019 07:00:00 2,4 1,9 - - 4 2 SSW 0,0
21.01.2019 06:00:00 2,6 2,0 - - 2 1 W 0,0
21.01.2019 05:00:00 2,7 2,1 - - 5 3 SSE 0,0
21.01.2019 04:00:00 2,8 2,3 - - 5 3 W 0,0
21.01.2019 03:00:00 2,6 2,2 - - 4 2 W 0,0
21.01.2019 02:00:00 2,7 2,3 - - 5 3 NW 0,0
21.01.2019 01:00:00 2,1 1,7 - - 5 3 WNW 0,0
21.01.2019 00:00:00 2,1 1,7 - - 8 4 NW 0,0
20.01.2019 23:00:00 1,6 1,1 - - 5 3 NW 0,0
20.01.2019 22:00:00 2,3 1,6 - - 5 3 NNW 0,0
20.01.2019 21:00:00 2,4 2,0 - - 8 4 NNW 0,0
20.01.2019 20:00:00 2,0 1,4 - - 5 3 NW 0,0
20.01.2019 19:00:00 2,4 1,7 - - 5 3 NW 0,0
20.01.2019 18:00:00 3,2 1,8 - - 5 3 WNW -
20.01.2019 17:00:00 3,5 1,7 - - 5 3 NW 0,0
20.01.2019 16:00:00 3,4 1,3 - - 4 2 WNW 0,0
20.01.2019 15:00:00 3,9 0,9 - - 5 3 NW 0,0
20.01.2019 14:00:00 4,0 0,0 - - 4 2 WNW 0,0
20.01.2019 13:00:00 3,7 0,5 - - 2 1 NNE 0,0
20.01.2019 12:00:00 3,1 0,0 - - 2 1 E 0,0
20.01.2019 11:00:00 2,7 0,1 - - 0 0 N 0,0
20.01.2019 10:00:00 1,9 0,1 - - 4 2 ESE 0,0
20.01.2019 09:00:00 1,5 0,5 5,7 7,7 4 2 E 0,0
20.01.2019 08:00:00 1,1 0,3 - - 2 1 E 0,0
20.01.2019 07:00:00 1,2 0,5 - - 4 2 ENE 0,0
20.01.2019 06:00:00 1,5 0,9 - - 5 3 E 0,0
20.01.2019 05:00:00 1,7 1,1 - - 5 3 ESE 0,0
20.01.2019 04:00:00 2,1 1,4 - - 8 4 E 0,0
20.01.2019 03:00:00 2,4 1,5 - - 8 4 E 0,0
20.01.2019 02:00:00 2,9 2,1 - - 5 3 E 0,0
20.01.2019 01:00:00 3,1 2,3 - - 8 4 E 0,0
20.01.2019 00:00:00 3,3 2,5 - - 8 4 E 0,0
19.01.2019 23:00:00 3,4 2,7 - - 8 4 ESE 0,0
19.01.2019 22:00:00 3,5 2,8 - - 5 3 E 0,2
19.01.2019 21:00:00 3,5 2,8 - - 8 4 E 0,0
19.01.2019 20:00:00 3,6 3,0 - - 9 5 ESE 0,0
19.01.2019 19:00:00 3,4 2,8 - - 9 5 ESE 0,0
19.01.2019 18:00:00 3,4 2,7 - - 9 5 ESE 0,2
19.01.2019 17:00:00 3,4 2,7 - - 11 6 E 0,0
19.01.2019 16:00:00 3,2 2,6 - - 11 6 E 0,2
19.01.2019 15:00:00 3,5 2,6 - - 9 5 ESE 0,2
19.01.2019 14:00:00 3,5 2,5 - - 9 5 ESE 0,2
19.01.2019 13:00:00 3,3 2,2 - - 11 6 SE 0,0
19.01.2019 12:00:00 3,1 2,2 - - 13 7 SE 0,2
19.01.2019 11:00:00 2,7 1,9 - - 11 6 SE 0,2
19.01.2019 10:00:00 3,0 1,5 - - 15 8 SE 0,0
19.01.2019 09:00:00 2,9 1,5 5,7 7,9 11 6 SE 0,2
19.01.2019 08:00:00 2,9 1,5 - - 13 7 ESE 0,0
19.01.2019 07:00:00 2,7 1,5 - - 15 8 SE 0,0
19.01.2019 06:00:00 2,7 1,1 - - 18 10 SE 0,0
19.01.2019 05:00:00 2,6 1,2 - - 15 8 SE 0,0
19.01.2019 04:00:00 2,4 1,1 - - 15 8 SE 0,0
19.01.2019 03:00:00 2,4 1,2 - - 11 6 SSE 0,2
19.01.2019 02:00:00 2,2 0,7 - - 15 8 SSE 0,4
19.01.2019 01:00:00 2,0 0,5 - - 15 8 SE 0,8
19.01.2019 00:00:00 1,5 0,0 - - 15 8 SSE 1,0
18.01.2019 23:00:00 2,3 0,2 - - 13 7 SSE 0,6
18.01.2019 22:00:00 2,6 0,2 - - 15 8 SSE 0,4
18.01.2019 21:00:00 2,6 -0,2 - - 16 9 S 0,2
18.01.2019 20:00:00 3,6 -1,2 - - 15 8 SSE 0,0
18.01.2019 19:00:00 3,8 -1,3 - - 13 7 SSE 0,0
18.01.2019 18:00:00 3,9 -1,3 - - 16 9 SSE 0,0
18.01.2019 17:00:00 4,3 -2,2 - - 16 9 SSE 0,0
18.01.2019 16:00:00 4,3 -0,9 - - 16 9 SSE 0,0
18.01.2019 15:00:00 4,3 -0,8 - - 15 8 SSE 0,0
18.01.2019 14:00:00 4,3 -0,3 - - 15 8 SSE 0,0
18.01.2019 13:00:00 3,4 -0,6 - - 15 8 SSE 0,0
18.01.2019 12:00:00 2,8 -1,1 - - 15 8 SSE 0,0
18.01.2019 11:00:00 1,8 -1,7 - - 15 8 SSE 0,0
18.01.2019 10:00:00 0,8 -2,3 - - 9 5 SSE 0,0
18.01.2019 09:00:00 0,0 -3,0 5,9 8,0 11 6 SSE 0,0
18.01.2019 08:00:00 -0,3 -3,2 - - 8 4 SE 0,0
18.01.2019 07:00:00 -0,8 -3,3 - - 8 4 SE 0,0
18.01.2019 06:00:00 -1,1 -3,3 - - 5 3 SSE 0,0
18.01.2019 05:00:00 -1,2 -3,1 - - 4 2 S 0,0
18.01.2019 04:00:00 -1,5 -3,2 - - 4 2 SSW 0,0
18.01.2019 03:00:00 -1,5 -3,1 - - 2 1 SSW 0,0
18.01.2019 02:00:00 -1,6 -2,8 - - 2 1 SSW 0,0
18.01.2019 01:00:00 -1,5 -3,4 - - 4 2 W 0,0
18.01.2019 00:00:00 -1,1 -3,1 - - 5 3 WSW 0,0
17.01.2019 23:00:00 -0,9 -3,0 - - 5 3 W 0,0

tt = temperature
td = dewpoint
tt -20cm = temperature -20cm
tt -100cm = temperature -100cm
ff = wind speed
dd = wind direction
rr = precipitation

Next stations